sensor_id;sensor_type;location;lat;lon;timestamp;P1;durP1;ratioP1;P2;durP2;ratioP2
4577;SDS011;2301;47.354;8.528;2023-03-01T00:01:18;14.98;;;10.00;;
4577;SDS011;2301;47.354;8.528;2023-03-01T00:03:46;15.95;;;11.07;;
4577;SDS011;2301;47.354;8.528;2023-03-01T00:06:13;18.42;;;11.60;;
4577;SDS011;2301;47.354;8.528;2023-03-01T00:08:40;12.75;;;9.07;;
4577;SDS011;2301;47.354;8.528;2023-03-01T00:11:09;13.63;;;8.93;;
4577;SDS011;2301;47.354;8.528;2023-03-01T00:13:38;13.40;;;10.10;;
4577;SDS011;2301;47.354;8.528;2023-03-01T00:16:08;15.30;;;10.80;;
4577;SDS011;2301;47.354;8.528;2023-03-01T00:18:36;14.20;;;10.38;;
4577;SDS011;2301;47.354;8.528;2023-03-01T00:21:04;13.43;;;9.88;;
4577;SDS011;2301;47.354;8.528;2023-03-01T00:23:31;11.98;;;9.63;;
4577;SDS011;2301;47.354;8.528;2023-03-01T00:25:59;14.60;;;10.65;;
4577;SDS011;2301;47.354;8.528;2023-03-01T00:28:27;15.38;;;10.68;;
4577;SDS011;2301;47.354;8.528;2023-03-01T00:30:53;13.20;;;9.73;;
4577;SDS011;2301;47.354;8.528;2023-03-01T00:33:22;14.90;;;10.60;;
4577;SDS011;2301;47.354;8.528;2023-03-01T00:35:49;13.55;;;10.80;;
4577;SDS011;2301;47.354;8.528;2023-03-01T00:38:16;13.43;;;10.02;;
4577;SDS011;2301;47.354;8.528;2023-03-01T00:40:43;13.05;;;9.52;;
4577;SDS011;2301;47.354;8.528;2023-03-01T00:43:10;12.18;;;8.57;;
4577;SDS011;2301;47.354;8.528;2023-03-01T00:45:37;13.23;;;10.15;;
4577;SDS011;2301;47.354;8.528;2023-03-01T00:48:04;12.70;;;9.68;;
4577;SDS011;2301;47.354;8.528;2023-03-01T00:50:33;22.73;;;16.48;;
4577;SDS011;2301;47.354;8.528;2023-03-01T00:52:59;22.67;;;16.90;;
4577;SDS011;2301;47.354;8.528;2023-03-01T00:55:27;25.65;;;18.77;;
4577;SDS011;2301;47.354;8.528;2023-03-01T00:57:54;26.55;;;18.77;;
4577;SDS011;2301;47.354;8.528;2023-03-01T01:00:21;26.60;;;18.05;;
4577;SDS011;2301;47.354;8.528;2023-03-01T01:02:48;27.90;;;19.45;;
4577;SDS011;2301;47.354;8.528;2023-03-01T01:05:15;25.63;;;18.73;;
4577;SDS011;2301;47.354;8.528;2023-03-01T01:07:47;29.63;;;19.58;;
4577;SDS011;2301;47.354;8.528;2023-03-01T01:10:15;30.25;;;19.98;;
4577;SDS011;2301;47.354;8.528;2023-03-01T01:12:46;27.60;;;19.42;;
4577;SDS011;2301;47.354;8.528;2023-03-01T01:15:13;30.02;;;19.75;;
4577;SDS011;2301;47.354;8.528;2023-03-01T01:17:41;26.58;;;19.13;;
4577;SDS011;2301;47.354;8.528;2023-03-01T01:20:09;30.70;;;19.70;;
4577;SDS011;2301;47.354;8.528;2023-03-01T01:22:37;27.88;;;18.58;;
4577;SDS011;2301;47.354;8.528;2023-03-01T01:25:06;32.83;;;20.33;;
4577;SDS011;2301;47.354;8.528;2023-03-01T01:27:33;32.60;;;22.20;;
4577;SDS011;2301;47.354;8.528;2023-03-01T01:30:00;35.67;;;21.42;;
4577;SDS011;2301;47.354;8.528;2023-03-01T01:32:27;28.92;;;19.95;;
4577;SDS011;2301;47.354;8.528;2023-03-01T01:34:54;32.38;;;21.65;;
4577;SDS011;2301;47.354;8.528;2023-03-01T01:37:21;28.67;;;19.25;;
4577;SDS011;2301;47.354;8.528;2023-03-01T01:39:56;30.23;;;20.25;;
4577;SDS011;2301;47.354;8.528;2023-03-01T01:42:24;31.95;;;20.80;;
4577;SDS011;2301;47.354;8.528;2023-03-01T01:48:00;32.67;;;19.95;;
4577;SDS011;2301;47.354;8.528;2023-03-01T01:50:35;31.98;;;20.08;;
4577;SDS011;2301;47.354;8.528;2023-03-01T01:53:07;30.42;;;21.40;;
4577;SDS011;2301;47.354;8.528;2023-03-01T01:55:39;30.90;;;19.70;;
4577;SDS011;2301;47.354;8.528;2023-03-01T01:58:11;27.60;;;18.73;;
4577;SDS011;2301;47.354;8.528;2023-03-01T02:00:44;27.80;;;20.05;;
4577;SDS011;2301;47.354;8.528;2023-03-01T02:03:11;30.20;;;20.33;;
4577;SDS011;2301;47.354;8.528;2023-03-01T02:05:43;31.55;;;21.20;;
4577;SDS011;2301;47.354;8.528;2023-03-01T02:08:14;32.72;;;21.50;;
4577;SDS011;2301;47.354;8.528;2023-03-01T02:10:46;29.77;;;20.05;;
4577;SDS011;2301;47.354;8.528;2023-03-01T02:13:40;38.38;;;20.70;;
4577;SDS011;2301;47.354;8.528;2023-03-01T02:16:23;27.33;;;18.67;;
4577;SDS011;2301;47.354;8.528;2023-03-01T02:19:01;36.80;;;21.17;;
4577;SDS011;2301;47.354;8.528;2023-03-01T02:21:41;32.63;;;19.55;;
4577;SDS011;2301;47.354;8.528;2023-03-01T02:27:33;29.00;;;18.42;;
4577;SDS011;2301;47.354;8.528;2023-03-01T02:30:30;30.08;;;19.33;;
4577;SDS011;2301;47.354;8.528;2023-03-01T02:33:22;29.98;;;19.65;;
4577;SDS011;2301;47.354;8.528;2023-03-01T02:36:01;28.27;;;19.50;;
4577;SDS011;2301;47.354;8.528;2023-03-01T02:38:43;27.33;;;18.35;;
4577;SDS011;2301;47.354;8.528;2023-03-01T02:41:35;28.75;;;19.02;;
4577;SDS011;2301;47.354;8.528;2023-03-01T02:44:30;28.33;;;19.08;;
4577;SDS011;2301;47.354;8.528;2023-03-01T02:47:01;30.25;;;19.13;;
4577;SDS011;2301;47.354;8.528;2023-03-01T02:49:32;27.50;;;18.67;;
4577;SDS011;2301;47.354;8.528;2023-03-01T02:52:21;34.05;;;19.55;;
4577;SDS011;2301;47.354;8.528;2023-03-01T02:55:09;28.75;;;19.70;;
4577;SDS011;2301;47.354;8.528;2023-03-01T02:57:44;29.92;;;20.75;;
4577;SDS011;2301;47.354;8.528;2023-03-01T03:00:39;30.60;;;19.13;;
4577;SDS011;2301;47.354;8.528;2023-03-01T03:03:22;28.58;;;19.70;;
4577;SDS011;2301;47.354;8.528;2023-03-01T03:06:09;27.08;;;18.35;;
4577;SDS011;2301;47.354;8.528;2023-03-01T03:08:51;32.67;;;21.25;;
4577;SDS011;2301;47.354;8.528;2023-03-01T03:11:40;30.45;;;19.08;;
4577;SDS011;2301;47.354;8.528;2023-03-01T03:14:14;30.20;;;20.17;;
4577;SDS011;2301;47.354;8.528;2023-03-01T03:16:54;32.28;;;20.08;;
4577;SDS011;2301;47.354;8.528;2023-03-01T03:19:33;31.58;;;20.27;;
4577;SDS011;2301;47.354;8.528;2023-03-01T03:22:03;30.50;;;20.20;;
4577;SDS011;2301;47.354;8.528;2023-03-01T03:24:31;32.78;;;20.27;;
4577;SDS011;2301;47.354;8.528;2023-03-01T03:27:04;28.77;;;18.92;;
4577;SDS011;2301;47.354;8.528;2023-03-01T03:29:55;32.60;;;20.88;;
4577;SDS011;2301;47.354;8.528;2023-03-01T03:32:29;29.05;;;19.42;;
4577;SDS011;2301;47.354;8.528;2023-03-01T03:35:01;28.67;;;18.92;;
4577;SDS011;2301;47.354;8.528;2023-03-01T03:37:39;30.88;;;20.13;;
4577;SDS011;2301;47.354;8.528;2023-03-01T03:40:51;30.08;;;19.25;;
4577;SDS011;2301;47.354;8.528;2023-03-01T03:43:41;30.58;;;20.83;;
4577;SDS011;2301;47.354;8.528;2023-03-01T03:46:23;30.85;;;20.90;;
4577;SDS011;2301;47.354;8.528;2023-03-01T03:49:09;27.63;;;18.40;;
4577;SDS011;2301;47.354;8.528;2023-03-01T03:51:49;30.48;;;19.20;;
4577;SDS011;2301;47.354;8.528;2023-03-01T03:54:52;28.73;;;19.00;;
4577;SDS011;2301;47.354;8.528;2023-03-01T04:00:56;31.98;;;20.67;;
4577;SDS011;2301;47.354;8.528;2023-03-01T04:03:54;34.08;;;20.40;;
4577;SDS011;2301;47.354;8.528;2023-03-01T04:06:41;31.17;;;20.35;;
4577;SDS011;2301;47.354;8.528;2023-03-01T04:09:22;29.95;;;20.13;;
4577;SDS011;2301;47.354;8.528;2023-03-01T04:12:02;32.13;;;21.27;;
4577;SDS011;2301;47.354;8.528;2023-03-01T04:14:30;32.28;;;20.60;;
4577;SDS011;2301;47.354;8.528;2023-03-01T04:17:06;30.75;;;19.20;;
4577;SDS011;2301;47.354;8.528;2023-03-01T04:19:36;33.85;;;20.80;;
4577;SDS011;2301;47.354;8.528;2023-03-01T04:22:07;31.20;;;20.70;;
4577;SDS011;2301;47.354;8.528;2023-03-01T04:25:06;32.50;;;21.17;;
4577;SDS011;2301;47.354;8.528;2023-03-01T04:27:59;36.55;;;21.35;;
4577;SDS011;2301;47.354;8.528;2023-03-01T04:30:40;34.50;;;20.77;;
4577;SDS011;2301;47.354;8.528;2023-03-01T04:33:19;32.53;;;20.10;;
4577;SDS011;2301;47.354;8.528;2023-03-01T04:36:15;38.65;;;21.92;;
4577;SDS011;2301;47.354;8.528;2023-03-01T04:39:09;33.83;;;21.17;;
4577;SDS011;2301;47.354;8.528;2023-03-01T04:41:57;38.40;;;23.20;;
4577;SDS011;2301;47.354;8.528;2023-03-01T04:45:05;35.28;;;21.15;;
4577;SDS011;2301;47.354;8.528;2023-03-01T04:47:38;37.40;;;22.05;;
4577;SDS011;2301;47.354;8.528;2023-03-01T04:50:06;36.85;;;20.75;;
4577;SDS011;2301;47.354;8.528;2023-03-01T04:52:45;34.20;;;20.77;;
4577;SDS011;2301;47.354;8.528;2023-03-01T04:55:41;33.75;;;21.98;;
4577;SDS011;2301;47.354;8.528;2023-03-01T04:58:52;31.17;;;20.65;;
4577;SDS011;2301;47.354;8.528;2023-03-01T05:01:32;34.40;;;21.13;;
4577;SDS011;2301;47.354;8.528;2023-03-01T05:04:03;31.48;;;21.60;;
4577;SDS011;2301;47.354;8.528;2023-03-01T05:06:40;40.35;;;21.90;;
4577;SDS011;2301;47.354;8.528;2023-03-01T05:09:13;39.13;;;22.15;;
4577;SDS011;2301;47.354;8.528;2023-03-01T05:11:41;37.85;;;23.70;;
4577;SDS011;2301;47.354;8.528;2023-03-01T05:14:15;33.38;;;21.70;;
4577;SDS011;2301;47.354;8.528;2023-03-01T05:16:42;34.15;;;21.40;;
4577;SDS011;2301;47.354;8.528;2023-03-01T05:19:12;36.60;;;22.38;;
4577;SDS011;2301;47.354;8.528;2023-03-01T05:21:52;36.15;;;22.13;;
4577;SDS011;2301;47.354;8.528;2023-03-01T05:24:46;31.10;;;21.17;;
4577;SDS011;2301;47.354;8.528;2023-03-01T05:27:33;35.78;;;23.02;;
4577;SDS011;2301;47.354;8.528;2023-03-01T05:30:17;37.15;;;22.63;;
4577;SDS011;2301;47.354;8.528;2023-03-01T05:32:51;33.53;;;21.77;;
4577;SDS011;2301;47.354;8.528;2023-03-01T05:35:21;35.97;;;22.02;;
4577;SDS011;2301;47.354;8.528;2023-03-01T05:38:04;33.95;;;21.77;;
4577;SDS011;2301;47.354;8.528;2023-03-01T05:40:42;37.80;;;22.67;;
4577;SDS011;2301;47.354;8.528;2023-03-01T05:43:11;32.65;;;21.00;;
4577;SDS011;2301;47.354;8.528;2023-03-01T05:45:44;34.13;;;20.70;;
4577;SDS011;2301;47.354;8.528;2023-03-01T05:48:12;35.35;;;22.20;;
4577;SDS011;2301;47.354;8.528;2023-03-01T05:50:46;34.33;;;22.38;;
4577;SDS011;2301;47.354;8.528;2023-03-01T05:53:30;36.65;;;21.52;;
4577;SDS011;2301;47.354;8.528;2023-03-01T05:56:13;36.17;;;22.23;;
4577;SDS011;2301;47.354;8.528;2023-03-01T05:59:01;33.88;;;21.02;;
4577;SDS011;2301;47.354;8.528;2023-03-01T06:01:47;35.15;;;21.83;;
4577;SDS011;2301;47.354;8.528;2023-03-01T06:04:17;37.40;;;22.83;;
4577;SDS011;2301;47.354;8.528;2023-03-01T06:06:46;37.70;;;21.63;;
4577;SDS011;2301;47.354;8.528;2023-03-01T06:09:19;36.10;;;21.55;;
4577;SDS011;2301;47.354;8.528;2023-03-01T06:11:49;36.75;;;22.20;;
4577;SDS011;2301;47.354;8.528;2023-03-01T06:14:18;38.13;;;23.40;;
4577;SDS011;2301;47.354;8.528;2023-03-01T06:16:49;32.95;;;21.40;;
4577;SDS011;2301;47.354;8.528;2023-03-01T06:19:16;37.90;;;24.02;;
4577;SDS011;2301;47.354;8.528;2023-03-01T06:21:44;37.67;;;22.92;;
4577;SDS011;2301;47.354;8.528;2023-03-01T06:24:14;35.47;;;23.33;;
4577;SDS011;2301;47.354;8.528;2023-03-01T06:26:44;37.38;;;23.55;;
4577;SDS011;2301;47.354;8.528;2023-03-01T06:29:16;41.88;;;23.95;;
4577;SDS011;2301;47.354;8.528;2023-03-01T06:31:44;37.35;;;23.42;;
4577;SDS011;2301;47.354;8.528;2023-03-01T06:34:18;35.92;;;22.30;;
4577;SDS011;2301;47.354;8.528;2023-03-01T06:36:47;40.47;;;23.92;;
4577;SDS011;2301;47.354;8.528;2023-03-01T06:39:20;38.78;;;23.25;;
4577;SDS011;2301;47.354;8.528;2023-03-01T06:41:50;36.65;;;23.05;;
4577;SDS011;2301;47.354;8.528;2023-03-01T06:44:47;36.88;;;23.08;;
4577;SDS011;2301;47.354;8.528;2023-03-01T06:47:15;37.20;;;23.48;;
4577;SDS011;2301;47.354;8.528;2023-03-01T06:49:47;38.97;;;23.02;;
4577;SDS011;2301;47.354;8.528;2023-03-01T06:52:30;41.42;;;24.08;;
4577;SDS011;2301;47.354;8.528;2023-03-01T06:55:35;35.60;;;21.48;;
4577;SDS011;2301;47.354;8.528;2023-03-01T06:58:14;40.50;;;22.67;;
4577;SDS011;2301;47.354;8.528;2023-03-01T07:01:02;34.47;;;21.48;;
4577;SDS011;2301;47.354;8.528;2023-03-01T07:04:19;8.43;;;5.45;;
4577;SDS011;2301;47.354;8.528;2023-03-01T07:09:53;38.50;;;22.90;;
4577;SDS011;2301;47.354;8.528;2023-03-01T07:12:20;36.25;;;22.50;;
4577;SDS011;2301;47.354;8.528;2023-03-01T07:14:47;35.00;;;22.35;;
4577;SDS011;2301;47.354;8.528;2023-03-01T07:17:14;12.77;;;7.28;;
4577;SDS011;2301;47.354;8.528;2023-03-01T07:19:41;11.50;;;6.60;;
4577;SDS011;2301;47.354;8.528;2023-03-01T07:22:09;27.85;;;16.45;;
4577;SDS011;2301;47.354;8.528;2023-03-01T07:24:36;36.83;;;23.10;;
4577;SDS011;2301;47.354;8.528;2023-03-01T07:27:05;32.72;;;21.95;;
4577;SDS011;2301;47.354;8.528;2023-03-01T07:29:32;35.45;;;22.60;;
4577;SDS011;2301;47.354;8.528;2023-03-01T07:32:01;38.80;;;23.20;;
4577;SDS011;2301;47.354;8.528;2023-03-01T07:34:28;35.78;;;23.50;;
4577;SDS011;2301;47.354;8.528;2023-03-01T07:36:55;34.22;;;22.85;;
4577;SDS011;2301;47.354;8.528;2023-03-01T07:39:22;42.20;;;23.48;;
4577;SDS011;2301;47.354;8.528;2023-03-01T07:41:49;36.17;;;23.23;;
4577;SDS011;2301;47.354;8.528;2023-03-01T07:44:18;38.10;;;23.52;;
4577;SDS011;2301;47.354;8.528;2023-03-01T07:46:46;41.55;;;23.55;;
4577;SDS011;2301;47.354;8.528;2023-03-01T07:49:18;38.88;;;23.13;;
4577;SDS011;2301;47.354;8.528;2023-03-01T07:51:48;35.10;;;23.13;;
4577;SDS011;2301;47.354;8.528;2023-03-01T07:54:15;36.38;;;22.85;;
4577;SDS011;2301;47.354;8.528;2023-03-01T07:56:43;39.85;;;24.15;;
4577;SDS011;2301;47.354;8.528;2023-03-01T07:59:10;36.13;;;21.38;;
4577;SDS011;2301;47.354;8.528;2023-03-01T08:01:39;38.10;;;23.25;;
4577;SDS011;2301;47.354;8.528;2023-03-01T08:04:07;33.38;;;21.40;;
4577;SDS011;2301;47.354;8.528;2023-03-01T08:06:34;35.75;;;22.20;;
4577;SDS011;2301;47.354;8.528;2023-03-01T08:09:04;37.55;;;22.83;;
4577;SDS011;2301;47.354;8.528;2023-03-01T08:11:32;37.75;;;23.30;;
4577;SDS011;2301;47.354;8.528;2023-03-01T08:14:00;38.72;;;22.70;;
4577;SDS011;2301;47.354;8.528;2023-03-01T08:16:27;40.03;;;23.17;;
4577;SDS011;2301;47.354;8.528;2023-03-01T08:19:02;36.38;;;22.25;;
4577;SDS011;2301;47.354;8.528;2023-03-01T08:21:33;36.53;;;22.83;;
4577;SDS011;2301;47.354;8.528;2023-03-01T08:24:03;39.65;;;23.92;;
4577;SDS011;2301;47.354;8.528;2023-03-01T08:26:35;33.03;;;21.42;;
4577;SDS011;2301;47.354;8.528;2023-03-01T08:29:05;42.13;;;22.45;;
4577;SDS011;2301;47.354;8.528;2023-03-01T08:31:34;41.15;;;23.88;;
4577;SDS011;2301;47.354;8.528;2023-03-01T08:34:06;35.97;;;22.35;;
4577;SDS011;2301;47.354;8.528;2023-03-01T08:36:37;37.80;;;22.58;;
4577;SDS011;2301;47.354;8.528;2023-03-01T08:39:06;35.47;;;22.38;;
4577;SDS011;2301;47.354;8.528;2023-03-01T08:41:39;36.90;;;21.98;;
4577;SDS011;2301;47.354;8.528;2023-03-01T08:44:09;38.33;;;22.38;;
4577;SDS011;2301;47.354;8.528;2023-03-01T08:46:38;35.88;;;22.67;;
4577;SDS011;2301;47.354;8.528;2023-03-01T08:52:12;37.20;;;21.63;;
4577;SDS011;2301;47.354;8.528;2023-03-01T08:58:13;36.80;;;22.83;;
4577;SDS011;2301;47.354;8.528;2023-03-01T09:01:10;40.13;;;23.20;;
4577;SDS011;2301;47.354;8.528;2023-03-01T09:10:23;37.90;;;22.88;;
4577;SDS011;2301;47.354;8.528;2023-03-01T09:12:54;40.80;;;23.70;;
4577;SDS011;2301;47.354;8.528;2023-03-01T09:15:32;42.00;;;23.80;;
4577;SDS011;2301;47.354;8.528;2023-03-01T09:21:19;36.80;;;21.75;;
4577;SDS011;2301;47.354;8.528;2023-03-01T09:24:25;37.63;;;21.80;;
4577;SDS011;2301;47.354;8.528;2023-03-01T09:27:28;38.85;;;22.08;;
4577;SDS011;2301;47.354;8.528;2023-03-01T09:30:26;38.38;;;22.52;;
4577;SDS011;2301;47.354;8.528;2023-03-01T09:33:14;36.15;;;21.25;;
4577;SDS011;2301;47.354;8.528;2023-03-01T09:35:45;34.78;;;22.02;;
4577;SDS011;2301;47.354;8.528;2023-03-01T09:38:14;37.13;;;21.55;;
4577;SDS011;2301;47.354;8.528;2023-03-01T09:40:55;38.05;;;22.65;;
4577;SDS011;2301;47.354;8.528;2023-03-01T09:43:34;38.97;;;23.48;;
4577;SDS011;2301;47.354;8.528;2023-03-01T09:46:24;39.97;;;22.02;;
4577;SDS011;2301;47.354;8.528;2023-03-01T09:48:55;43.33;;;23.40;;
4577;SDS011;2301;47.354;8.528;2023-03-01T09:51:29;40.03;;;22.75;;
4577;SDS011;2301;47.354;8.528;2023-03-01T09:54:03;35.85;;;22.58;;
4577;SDS011;2301;47.354;8.528;2023-03-01T10:00:02;41.17;;;23.85;;
4577;SDS011;2301;47.354;8.528;2023-03-01T10:03:11;39.10;;;22.15;;
4577;SDS011;2301;47.354;8.528;2023-03-01T10:05:58;39.22;;;23.02;;
4577;SDS011;2301;47.354;8.528;2023-03-01T10:08:49;36.42;;;22.33;;
4577;SDS011;2301;47.354;8.528;2023-03-01T10:11:25;42.33;;;23.80;;
4577;SDS011;2301;47.354;8.528;2023-03-01T10:13:56;37.28;;;21.88;;
4577;SDS011;2301;47.354;8.528;2023-03-01T10:16:34;35.65;;;21.70;;
4577;SDS011;2301;47.354;8.528;2023-03-01T10:19:09;41.78;;;21.70;;
4577;SDS011;2301;47.354;8.528;2023-03-01T10:21:45;35.83;;;21.45;;
4577;SDS011;2301;47.354;8.528;2023-03-01T10:24:25;36.72;;;22.05;;
4577;SDS011;2301;47.354;8.528;2023-03-01T10:26:57;37.50;;;21.70;;
4577;SDS011;2301;47.354;8.528;2023-03-01T10:29:31;40.78;;;23.25;;
4577;SDS011;2301;47.354;8.528;2023-03-01T10:32:29;31.45;;;19.65;;
4577;SDS011;2301;47.354;8.528;2023-03-01T10:35:14;38.67;;;21.70;;
4577;SDS011;2301;47.354;8.528;2023-03-01T10:37:56;36.75;;;21.48;;
4577;SDS011;2301;47.354;8.528;2023-03-01T10:40:49;37.72;;;21.00;;
4577;SDS011;2301;47.354;8.528;2023-03-01T10:43:22;35.53;;;20.73;;
4577;SDS011;2301;47.354;8.528;2023-03-01T10:45:57;34.97;;;21.35;;
4577;SDS011;2301;47.354;8.528;2023-03-01T10:48:25;35.88;;;21.23;;
4577;SDS011;2301;47.354;8.528;2023-03-01T10:51:04;33.25;;;19.67;;
4577;SDS011;2301;47.354;8.528;2023-03-01T10:53:34;36.55;;;20.95;;
4577;SDS011;2301;47.354;8.528;2023-03-01T10:59:30;36.17;;;20.60;;
4577;SDS011;2301;47.354;8.528;2023-03-01T11:02:47;32.63;;;20.50;;
4577;SDS011;2301;47.354;8.528;2023-03-01T11:12:23;38.40;;;19.83;;
4577;SDS011;2301;47.354;8.528;2023-03-01T11:15:15;34.85;;;19.85;;
4577;SDS011;2301;47.354;8.528;2023-03-01T11:20:57;36.28;;;20.33;;
4577;SDS011;2301;47.354;8.528;2023-03-01T11:23:26;37.55;;;21.45;;
4577;SDS011;2301;47.354;8.528;2023-03-01T11:25:56;34.53;;;19.75;;
4577;SDS011;2301;47.354;8.528;2023-03-01T11:28:37;29.90;;;18.88;;
4577;SDS011;2301;47.354;8.528;2023-03-01T11:34:22;33.55;;;19.92;;
4577;SDS011;2301;47.354;8.528;2023-03-01T11:37:28;35.97;;;19.90;;
4577;SDS011;2301;47.354;8.528;2023-03-01T11:40:24;32.05;;;18.70;;
4577;SDS011;2301;47.354;8.528;2023-03-01T11:43:26;35.35;;;19.77;;
4577;SDS011;2301;47.354;8.528;2023-03-01T11:52:59;35.63;;;20.30;;
4577;SDS011;2301;47.354;8.528;2023-03-01T11:55:53;36.47;;;20.20;;
4577;SDS011;2301;47.354;8.528;2023-03-01T12:06:07;33.60;;;20.60;;
4577;SDS011;2301;47.354;8.528;2023-03-01T12:09:40;33.75;;;20.60;;
4577;SDS011;2301;47.354;8.528;2023-03-01T12:26:50;35.03;;;20.35;;
4577;SDS011;2301;47.354;8.528;2023-03-01T12:29:54;31.27;;;19.45;;
4577;SDS011;2301;47.354;8.528;2023-03-01T12:36:05;31.40;;;18.30;;
4577;SDS011;2301;47.354;8.528;2023-03-01T12:39:15;38.95;;;21.35;;
4577;SDS011;2301;47.354;8.528;2023-03-01T12:42:03;35.15;;;19.90;;
4577;SDS011;2301;47.354;8.528;2023-03-01T12:44:42;31.48;;;19.00;;
4577;SDS011;2301;47.354;8.528;2023-03-01T12:47:26;36.00;;;20.10;;
4577;SDS011;2301;47.354;8.528;2023-03-01T12:50:14;34.75;;;20.55;;
4577;SDS011;2301;47.354;8.528;2023-03-01T12:52:49;39.03;;;20.17;;
4577;SDS011;2301;47.354;8.528;2023-03-01T12:55:23;32.85;;;20.48;;
4577;SDS011;2301;47.354;8.528;2023-03-01T12:58:07;34.85;;;22.20;;
4577;SDS011;2301;47.354;8.528;2023-03-01T13:01:00;33.90;;;21.60;;
4577;SDS011;2301;47.354;8.528;2023-03-01T13:03:56;34.25;;;19.52;;
4577;SDS011;2301;47.354;8.528;2023-03-01T13:06:33;33.65;;;19.80;;
4577;SDS011;2301;47.354;8.528;2023-03-01T13:09:23;38.88;;;20.08;;
4577;SDS011;2301;47.354;8.528;2023-03-01T13:11:55;29.40;;;18.30;;
4577;SDS011;2301;47.354;8.528;2023-03-01T13:17:31;33.60;;;20.83;;
4577;SDS011;2301;47.354;8.528;2023-03-01T13:20:19;40.40;;;20.50;;
4577;SDS011;2301;47.354;8.528;2023-03-01T13:23:06;32.45;;;21.17;;
4577;SDS011;2301;47.354;8.528;2023-03-01T13:26:14;34.97;;;19.92;;
4577;SDS011;2301;47.354;8.528;2023-03-01T13:32:18;36.45;;;19.77;;
4577;SDS011;2301;47.354;8.528;2023-03-01T13:34:51;33.38;;;19.40;;
4577;SDS011;2301;47.354;8.528;2023-03-01T13:37:25;37.60;;;21.30;;
4577;SDS011;2301;47.354;8.528;2023-03-01T13:43:46;30.23;;;19.73;;
4577;SDS011;2301;47.354;8.528;2023-03-01T13:46:26;30.90;;;20.25;;
4577;SDS011;2301;47.354;8.528;2023-03-01T13:48:56;34.95;;;21.73;;
4577;SDS011;2301;47.354;8.528;2023-03-01T13:51:25;32.45;;;19.77;;
4577;SDS011;2301;47.354;8.528;2023-03-01T13:53:54;33.53;;;20.05;;
4577;SDS011;2301;47.354;8.528;2023-03-01T13:56:38;35.42;;;21.17;;
4577;SDS011;2301;47.354;8.528;2023-03-01T13:59:12;37.38;;;21.05;;
4577;SDS011;2301;47.354;8.528;2023-03-01T14:01:41;31.02;;;19.35;;
4577;SDS011;2301;47.354;8.528;2023-03-01T14:04:28;35.33;;;20.80;;
4577;SDS011;2301;47.354;8.528;2023-03-01T14:09:55;35.53;;;20.35;;
4577;SDS011;2301;47.354;8.528;2023-03-01T14:12:33;35.45;;;21.35;;
4577;SDS011;2301;47.354;8.528;2023-03-01T14:15:10;35.38;;;20.90;;
4577;SDS011;2301;47.354;8.528;2023-03-01T14:17:49;33.17;;;20.65;;
4577;SDS011;2301;47.354;8.528;2023-03-01T14:23:22;32.35;;;19.73;;
4577;SDS011;2301;47.354;8.528;2023-03-01T14:25:52;34.08;;;20.10;;
4577;SDS011;2301;47.354;8.528;2023-03-01T14:28:26;32.03;;;20.35;;
4577;SDS011;2301;47.354;8.528;2023-03-01T14:31:02;40.25;;;22.17;;
4577;SDS011;2301;47.354;8.528;2023-03-01T14:33:54;35.20;;;21.10;;
4577;SDS011;2301;47.354;8.528;2023-03-01T14:36:27;35.25;;;20.48;;
4577;SDS011;2301;47.354;8.528;2023-03-01T14:38:55;46.15;;;20.85;;
4577;SDS011;2301;47.354;8.528;2023-03-01T14:41:24;32.65;;;19.65;;
4577;SDS011;2301;47.354;8.528;2023-03-01T14:43:58;37.53;;;21.50;;
4577;SDS011;2301;47.354;8.528;2023-03-01T14:46:44;43.83;;;21.35;;
4577;SDS011;2301;47.354;8.528;2023-03-01T14:49:13;37.58;;;19.52;;
4577;SDS011;2301;47.354;8.528;2023-03-01T14:51:46;33.25;;;20.42;;
4577;SDS011;2301;47.354;8.528;2023-03-01T14:54:36;31.85;;;19.98;;
4577;SDS011;2301;47.354;8.528;2023-03-01T14:57:12;34.20;;;20.42;;
4577;SDS011;2301;47.354;8.528;2023-03-01T14:59:42;33.88;;;20.77;;
4577;SDS011;2301;47.354;8.528;2023-03-01T15:02:11;32.03;;;20.00;;
4577;SDS011;2301;47.354;8.528;2023-03-01T15:05:04;28.88;;;18.77;;
4577;SDS011;2301;47.354;8.528;2023-03-01T15:07:38;33.72;;;20.02;;
4577;SDS011;2301;47.354;8.528;2023-03-01T15:10:14;39.00;;;23.92;;
4577;SDS011;2301;47.354;8.528;2023-03-01T15:12:45;37.28;;;21.77;;
4577;SDS011;2301;47.354;8.528;2023-03-01T15:15:38;37.17;;;22.45;;
4577;SDS011;2301;47.354;8.528;2023-03-01T15:18:55;32.55;;;19.95;;
4577;SDS011;2301;47.354;8.528;2023-03-01T15:21:29;38.70;;;22.15;;
4577;SDS011;2301;47.354;8.528;2023-03-01T15:24:06;34.28;;;21.08;;
4577;SDS011;2301;47.354;8.528;2023-03-01T15:26:50;34.95;;;21.50;;
4577;SDS011;2301;47.354;8.528;2023-03-01T15:29:22;40.80;;;21.83;;
4577;SDS011;2301;47.354;8.528;2023-03-01T15:32:22;39.28;;;21.67;;
4577;SDS011;2301;47.354;8.528;2023-03-01T15:34:52;39.80;;;21.27;;
4577;SDS011;2301;47.354;8.528;2023-03-01T15:37:44;35.92;;;21.00;;
4577;SDS011;2301;47.354;8.528;2023-03-01T15:44:16;34.67;;;20.63;;
4577;SDS011;2301;47.354;8.528;2023-03-01T15:46:46;34.83;;;20.02;;
4577;SDS011;2301;47.354;8.528;2023-03-01T15:52:09;35.45;;;21.83;;
4577;SDS011;2301;47.354;8.528;2023-03-01T15:55:04;34.22;;;20.75;;
4577;SDS011;2301;47.354;8.528;2023-03-01T15:57:40;35.72;;;22.73;;
4577;SDS011;2301;47.354;8.528;2023-03-01T16:00:09;37.90;;;22.05;;
4577;SDS011;2301;47.354;8.528;2023-03-01T16:02:38;34.20;;;21.13;;
4577;SDS011;2301;47.354;8.528;2023-03-01T16:05:08;32.75;;;20.23;;
4577;SDS011;2301;47.354;8.528;2023-03-01T16:07:42;33.65;;;21.13;;
4577;SDS011;2301;47.354;8.528;2023-03-01T16:10:09;31.30;;;20.23;;
4577;SDS011;2301;47.354;8.528;2023-03-01T16:12:37;34.80;;;20.90;;
4577;SDS011;2301;47.354;8.528;2023-03-01T16:15:09;36.50;;;20.95;;
4577;SDS011;2301;47.354;8.528;2023-03-01T16:17:43;32.28;;;21.15;;
4577;SDS011;2301;47.354;8.528;2023-03-01T16:20:10;34.40;;;20.67;;
4577;SDS011;2301;47.354;8.528;2023-03-01T16:22:40;37.45;;;22.48;;
4577;SDS011;2301;47.354;8.528;2023-03-01T16:25:08;30.50;;;20.10;;
4577;SDS011;2301;47.354;8.528;2023-03-01T16:27:35;30.83;;;19.60;;
4577;SDS011;2301;47.354;8.528;2023-03-01T16:30:02;35.55;;;21.45;;
4577;SDS011;2301;47.354;8.528;2023-03-01T16:32:31;39.70;;;19.42;;
4577;SDS011;2301;47.354;8.528;2023-03-01T16:34:58;29.20;;;19.70;;
4577;SDS011;2301;47.354;8.528;2023-03-01T16:37:25;33.45;;;20.50;;
4577;SDS011;2301;47.354;8.528;2023-03-01T16:39:52;33.88;;;20.00;;
4577;SDS011;2301;47.354;8.528;2023-03-01T16:42:20;32.22;;;20.58;;
4577;SDS011;2301;47.354;8.528;2023-03-01T16:44:47;33.28;;;20.52;;
4577;SDS011;2301;47.354;8.528;2023-03-01T16:47:13;34.70;;;19.35;;
4577;SDS011;2301;47.354;8.528;2023-03-01T16:49:42;35.83;;;19.73;;
4577;SDS011;2301;47.354;8.528;2023-03-01T16:52:09;31.23;;;19.52;;
4577;SDS011;2301;47.354;8.528;2023-03-01T16:54:36;30.10;;;19.45;;
4577;SDS011;2301;47.354;8.528;2023-03-01T16:57:03;35.53;;;19.95;;
4577;SDS011;2301;47.354;8.528;2023-03-01T16:59:30;31.15;;;18.65;;
4577;SDS011;2301;47.354;8.528;2023-03-01T17:01:57;28.50;;;19.63;;
4577;SDS011;2301;47.354;8.528;2023-03-01T17:04:23;30.48;;;19.63;;
4577;SDS011;2301;47.354;8.528;2023-03-01T17:06:52;30.70;;;19.23;;
4577;SDS011;2301;47.354;8.528;2023-03-01T17:09:19;32.40;;;19.17;;
4577;SDS011;2301;47.354;8.528;2023-03-01T17:11:47;29.38;;;18.77;;
4577;SDS011;2301;47.354;8.528;2023-03-01T17:14:14;30.40;;;18.25;;
4577;SDS011;2301;47.354;8.528;2023-03-01T17:16:42;33.50;;;20.00;;
4577;SDS011;2301;47.354;8.528;2023-03-01T17:19:10;27.58;;;18.70;;
4577;SDS011;2301;47.354;8.528;2023-03-01T17:21:42;29.75;;;18.67;;
4577;SDS011;2301;47.354;8.528;2023-03-01T17:24:11;28.83;;;19.13;;
4577;SDS011;2301;47.354;8.528;2023-03-01T17:26:38;30.60;;;19.10;;
4577;SDS011;2301;47.354;8.528;2023-03-01T17:29:05;29.02;;;19.42;;